createdAt,value
2019-05-05T00:06:31.762Z,94710.11
2019-05-05T00:11:44.455Z,94724.80
2019-05-05T00:16:45.617Z,94736.25
2019-05-05T00:21:46.933Z,94727.34
2019-05-05T00:26:48.287Z,94728.66
2019-05-05T00:31:49.648Z,94739.78
2019-05-05T00:36:51.216Z,94740.75
2019-05-05T00:41:52.550Z,94746.95
2019-05-05T00:46:56.804Z,94747.33
2019-05-05T00:51:58.266Z,94743.85
2019-05-05T00:57:00.061Z,94751.97
2019-05-05T01:02:07.372Z,94746.14
2019-05-05T01:07:16.841Z,94750.64
2019-05-05T01:12:18.421Z,94754.46
2019-05-05T01:17:20.588Z,94762.37
2019-05-05T02:52:30.541Z,94780.55
2019-05-05T02:57:34.439Z,94787.67
2019-05-05T03:02:35.281Z,94780.67
2019-05-05T03:07:36.133Z,94799.81
2019-05-05T03:12:37.445Z,94792.70
2019-05-05T03:17:39.505Z,94814.27
2019-05-05T03:22:40.825Z,94809.06
2019-05-05T03:27:42.140Z,94813.08
2019-05-05T03:32:45.650Z,94817.00
2019-05-05T03:37:44.745Z,94818.36
2019-05-05T03:42:48.047Z,94821.64
2019-05-05T03:47:49.388Z,94821.00
2019-05-05T04:43:46.504Z,94877.33
2019-05-05T04:48:54.410Z,94884.09
2019-05-05T05:16:36.954Z,94909.52
2019-05-05T05:58:36.692Z,94938.39
2019-05-05T06:03:37.978Z,94944.39
2019-05-05T06:08:39.286Z,94948.59
2019-05-05T06:13:40.601Z,94961.81
2019-05-05T06:18:43.677Z,94963.10
2019-05-05T06:23:43.833Z,94977.33
2019-05-05T06:28:44.823Z,94975.99
2019-05-05T06:33:45.967Z,94990.39
2019-05-05T06:38:47.326Z,94996.25
2019-05-05T06:43:54.738Z,94996.12
2019-05-05T06:48:56.093Z,94988.19
2019-05-05T06:53:57.356Z,94997.36
2019-05-05T06:58:58.605Z,95004.38
2019-05-05T07:04:08.431Z,95013.52
2019-05-05T07:09:13.897Z,95020.06
2019-05-05T07:14:14.326Z,95019.55
2019-05-05T07:19:15.445Z,95026.16
2019-05-05T07:24:16.774Z,95032.80
2019-05-05T07:29:18.220Z,95041.06
2019-05-05T07:34:19.480Z,95043.74
2019-05-05T07:39:20.840Z,95040.27
2019-05-05T07:44:26.662Z,95048.19
2019-05-05T08:14:49.569Z,95054.95
2019-05-05T08:20:08.949Z,95058.17
2019-05-05T08:31:11.246Z,95051.34
2019-05-05T08:48:55.753Z,95050.31
2019-05-05T08:53:57.081Z,95052.34
2019-05-05T08:58:58.426Z,95058.07
2019-05-05T09:03:59.781Z,95057.39
2019-05-05T09:09:01.128Z,95052.18
2019-05-05T09:14:04.113Z,95049.84
2019-05-05T09:19:06.607Z,95050.36
2019-05-05T09:24:14.431Z,95050.28
2019-05-05T09:29:21.426Z,95051.70
2019-05-05T09:34:24.001Z,95050.63
2019-05-05T09:39:24.854Z,95051.91
2019-05-05T09:44:26.182Z,95058.30
2019-05-05T09:49:29.036Z,95061.58
2019-05-05T09:54:31.132Z,95062.27
2019-05-05T09:59:34.465Z,95061.90
2019-05-05T10:04:33.890Z,95054.55
2019-05-05T10:09:35.252Z,95062.78
2019-05-05T10:14:36.562Z,95069.77
2019-05-05T10:19:38.798Z,95077.14
2019-05-05T10:24:41.121Z,95069.35
2019-05-05T10:29:44.219Z,95065.47
2019-05-05T10:34:44.070Z,95060.59
2019-05-05T10:39:47.437Z,95057.48
2019-05-05T10:44:48.730Z,95061.17
2019-05-05T10:49:50.057Z,95058.94
2019-05-05T10:54:51.392Z,95050.42
2019-05-05T10:59:53.977Z,95053.79
2019-05-05T11:04:54.616Z,95050.31
2019-05-05T11:09:55.652Z,95069.25
2019-05-05T11:14:57.044Z,95074.14
2019-05-05T11:19:59.198Z,95066.72
2019-05-05T11:25:01.463Z,95095.28
2019-05-05T11:30:09.590Z,95085.30
2019-05-05T11:35:10.909Z,95102.93
2019-05-05T11:40:13.497Z,95095.47
2019-05-05T11:45:14.898Z,95096.66
2019-05-05T11:50:16.424Z,95092.31
2019-05-05T11:55:17.927Z,95095.95
2019-05-05T12:00:19.448Z,95099.17
2019-05-05T12:05:20.778Z,95090.51
2019-05-05T12:15:53.783Z,95100.34
2019-05-05T12:20:54.495Z,95104.84
2019-05-05T12:25:57.322Z,95101.05
2019-05-05T12:31:03.767Z,95110.09
2019-05-05T12:36:07.656Z,95098.30
2019-05-05T12:41:09.032Z,95097.14
2019-05-05T12:46:15.498Z,95101.08
2019-05-05T12:51:16.845Z,95086.99
2019-05-05T12:56:18.253Z,95083.20
2019-05-05T13:01:20.577Z,95083.05
2019-05-05T13:06:23.850Z,95081.09
2019-05-05T13:11:23.837Z,95075.38
2019-05-05T13:16:25.680Z,95078.05
2019-05-05T13:21:28.006Z,95079.80
2019-05-05T13:32:00.196Z,95094.41
2019-05-05T13:37:03.492Z,95086.20
2019-05-05T13:42:04.548Z,95087.17
2019-05-05T13:47:04.585Z,95087.64
2019-05-05T13:52:06.054Z,95084.03
2019-05-05T13:57:07.408Z,95082.30
2019-05-05T14:02:08.770Z,95088.88
2019-05-05T14:07:10.149Z,95082.61
2019-05-05T14:12:11.514Z,95085.06
2019-05-05T14:17:14.711Z,95084.45
2019-05-05T14:22:14.273Z,95080.83
2019-05-05T14:27:15.628Z,95088.69
2019-05-05T14:32:17.144Z,95100.49
2019-05-05T14:37:24.919Z,95103.41
2019-05-05T14:42:26.224Z,95102.97
2019-05-05T14:47:27.546Z,95105.40
2019-05-05T14:52:28.874Z,95099.40
2019-05-05T14:57:30.222Z,95092.56
2019-05-05T15:02:31.615Z,95092.56
2019-05-05T15:07:34.031Z,95092.19
2019-05-05T15:12:36.868Z,95086.98
2019-05-05T15:17:38.249Z,95093.03
2019-05-05T15:22:39.634Z,95086.94
2019-05-05T15:27:41.001Z,95086.65
2019-05-05T15:32:43.784Z,95097.21
2019-05-05T15:37:43.728Z,95099.39
2019-05-05T15:42:45.044Z,95094.10
2019-05-05T15:47:46.412Z,95095.53
2019-05-05T15:52:47.857Z,95097.34
2019-05-05T15:57:49.601Z,95100.03
2019-05-05T16:02:50.968Z,95120.73
2019-05-05T16:07:54.200Z,95125.06
2019-05-05T16:12:54.007Z,95122.23
2019-05-05T16:18:07.008Z,95118.44
2019-05-05T16:23:14.212Z,95115.75
2019-05-05T16:28:14.560Z,95113.15
2019-05-05T16:33:15.162Z,95111.72
2019-05-05T16:38:17.293Z,95110.23
2019-05-05T16:43:18.633Z,95111.44
2019-05-05T16:48:21.216Z,95115.23
2019-05-05T16:53:28.841Z,95118.20
2019-05-05T16:58:30.156Z,95117.34
2019-05-05T17:03:31.469Z,95111.86
2019-05-05T17:08:33.783Z,95117.20
2019-05-05T17:13:38.052Z,95118.91
2019-05-05T17:24:08.617Z,95139.19
2019-05-05T17:29:10.738Z,95140.05
2019-05-05T17:34:13.702Z,95144.86
2019-05-05T17:39:14.193Z,95144.81
2019-05-05T17:44:21.544Z,95149.85
2019-05-05T17:49:26.796Z,95148.48
2019-05-05T17:54:34.136Z,95165.57
2019-05-05T17:59:35.522Z,95177.02
2019-05-05T18:04:36.917Z,95181.92
2019-05-05T18:09:44.438Z,95183.80
2019-05-05T18:14:47.561Z,95193.20
2019-05-05T18:19:48.949Z,95198.39
2019-05-05T18:24:50.289Z,95209.47
2019-05-05T18:29:51.744Z,95204.48
2019-05-05T18:34:54.582Z,95209.18
2019-05-05T18:39:54.762Z,95215.14
2019-05-05T18:44:58.131Z,95218.67
2019-05-05T18:50:01.231Z,95216.53
2019-05-05T18:55:04.414Z,95217.67
2019-05-05T19:00:04.104Z,95219.91
2019-05-05T19:05:10.342Z,95222.55
2019-05-05T19:10:12.451Z,95226.75
2019-05-05T19:15:13.896Z,95230.63
2019-05-05T19:20:21.277Z,95235.60
2019-05-05T19:25:24.144Z,95237.58
2019-05-05T19:30:25.691Z,95242.52
2019-05-05T19:35:40.797Z,95245.06
2019-05-05T19:40:26.801Z,95248.17
2019-05-05T19:45:28.247Z,95244.87
2019-05-05T19:50:31.099Z,95246.94
2019-05-05T19:55:33.815Z,95248.23
2019-05-05T20:00:34.810Z,95245.28
2019-05-05T20:05:35.233Z,95248.16
2019-05-05T20:10:37.321Z,95258.11
2019-05-05T20:15:44.271Z,95252.56
2019-05-05T20:20:44.675Z,95262.91
2019-05-05T20:25:45.956Z,95261.74
2019-05-05T20:30:47.339Z,95264.52
2019-05-05T20:35:48.705Z,95264.28
2019-05-05T20:46:21.137Z,95262.13
2019-05-05T20:51:24.220Z,95258.88
2019-05-05T20:56:23.827Z,95256.11
2019-05-05T21:01:25.193Z,95253.17
2019-05-05T21:06:26.540Z,95257.56
2019-05-05T21:11:28.581Z,95252.75
2019-05-05T21:16:29.965Z,95247.53
2019-05-05T21:21:31.352Z,95248.89
2019-05-05T21:26:39.541Z,95251.95
2019-05-05T21:31:40.953Z,95253.23
2019-05-05T21:36:44.530Z,95250.89
2019-05-05T21:41:47.409Z,95248.83
2019-05-05T21:46:53.679Z,95248.00
2019-05-05T21:57:35.529Z,95245.02
2019-05-05T22:02:36.873Z,95243.52
2019-05-05T22:07:38.192Z,95241.77
2019-05-05T22:12:39.506Z,95243.70
2019-05-05T22:17:40.857Z,95241.66
2019-05-05T22:22:42.185Z,95239.92
2019-05-05T22:27:44.116Z,95238.91
2019-05-05T22:32:44.872Z,95234.30
2019-05-05T22:37:46.188Z,95236.64
2019-05-05T22:42:48.268Z,95238.88
2019-05-05T22:47:50.337Z,95235.16
2019-05-05T22:52:51.665Z,95232.03
2019-05-05T22:57:54.408Z,95231.36
2019-05-05T23:02:55.159Z,95228.99
2019-05-05T23:07:57.237Z,95228.45
2019-05-05T23:12:58.550Z,95225.34
2019-05-05T23:18:00.798Z,95223.11
2019-05-05T23:23:04.728Z,95228.34
2019-05-05T23:28:04.401Z,95218.74
2019-05-05T23:33:05.744Z,95227.78
2019-05-05T23:38:07.092Z,95236.95
2019-05-05T23:43:08.407Z,95231.70
2019-05-05T23:48:09.763Z,95227.84
2019-05-05T23:53:11.120Z,95221.92
2019-05-05T23:58:14.284Z,95221.87
